sensor_id;sensor_type;location;lat;lon;timestamp;P1;durP1;ratioP1;P2;durP2;ratioP2
51854;SDS011;37895;53.240;6.572;2024-02-28T00:00:54;57.08;;;39.40;;
51854;SDS011;37895;53.240;6.572;2024-02-28T00:03:20;56.47;;;39.28;;
51854;SDS011;37895;53.240;6.572;2024-02-28T00:05:47;62.47;;;40.80;;
51854;SDS011;37895;53.240;6.572;2024-02-28T00:08:13;72.13;;;42.78;;
51854;SDS011;37895;53.240;6.572;2024-02-28T00:10:38;54.97;;;39.10;;
51854;SDS011;37895;53.240;6.572;2024-02-28T00:13:04;58.03;;;39.25;;
51854;SDS011;37895;53.240;6.572;2024-02-28T00:15:30;59.72;;;39.17;;
51854;SDS011;37895;53.240;6.572;2024-02-28T00:17:55;52.67;;;37.65;;
51854;SDS011;37895;53.240;6.572;2024-02-28T00:20:21;62.00;;;42.08;;
51854;SDS011;37895;53.240;6.572;2024-02-28T00:22:52;68.82;;;42.55;;
51854;SDS011;37895;53.240;6.572;2024-02-28T00:25:18;63.13;;;42.00;;
51854;SDS011;37895;53.240;6.572;2024-02-28T00:27:43;61.80;;;40.65;;
51854;SDS011;37895;53.240;6.572;2024-02-28T00:30:09;62.38;;;40.15;;
51854;SDS011;37895;53.240;6.572;2024-02-28T00:32:35;58.40;;;40.55;;
51854;SDS011;37895;53.240;6.572;2024-02-28T00:35:01;63.95;;;41.70;;
51854;SDS011;37895;53.240;6.572;2024-02-28T00:37:26;69.80;;;43.67;;
51854;SDS011;37895;53.240;6.572;2024-02-28T00:39:52;69.63;;;44.05;;
51854;SDS011;37895;53.240;6.572;2024-02-28T00:42:17;62.03;;;40.80;;
51854;SDS011;37895;53.240;6.572;2024-02-28T00:44:43;62.67;;;42.25;;
51854;SDS011;37895;53.240;6.572;2024-02-28T00:47:09;69.40;;;42.00;;
51854;SDS011;37895;53.240;6.572;2024-02-28T00:49:35;57.78;;;39.65;;
51854;SDS011;37895;53.240;6.572;2024-02-28T00:52:00;58.58;;;39.95;;
51854;SDS011;37895;53.240;6.572;2024-02-28T00:54:26;61.28;;;38.83;;
51854;SDS011;37895;53.240;6.572;2024-02-28T00:56:52;52.65;;;37.60;;
51854;SDS011;37895;53.240;6.572;2024-02-28T00:59:17;47.63;;;35.42;;
51854;SDS011;37895;53.240;6.572;2024-02-28T01:01:43;53.50;;;37.78;;
51854;SDS011;37895;53.240;6.572;2024-02-28T01:04:08;52.00;;;36.20;;
51854;SDS011;37895;53.240;6.572;2024-02-28T01:06:34;45.28;;;35.00;;
51854;SDS011;37895;53.240;6.572;2024-02-28T01:09:00;52.60;;;37.15;;
51854;SDS011;37895;53.240;6.572;2024-02-28T01:11:25;45.13;;;34.20;;
51854;SDS011;37895;53.240;6.572;2024-02-28T01:13:51;48.85;;;35.45;;
51854;SDS011;37895;53.240;6.572;2024-02-28T01:16:16;54.20;;;37.33;;
51854;SDS011;37895;53.240;6.572;2024-02-28T01:18:42;45.78;;;35.20;;
51854;SDS011;37895;53.240;6.572;2024-02-28T01:21:08;49.72;;;36.88;;
51854;SDS011;37895;53.240;6.572;2024-02-28T01:23:33;48.33;;;35.13;;
51854;SDS011;37895;53.240;6.572;2024-02-28T01:25:59;53.72;;;37.28;;
51854;SDS011;37895;53.240;6.572;2024-02-28T01:28:28;44.92;;;33.53;;
51854;SDS011;37895;53.240;6.572;2024-02-28T01:30:53;52.03;;;38.35;;
51854;SDS011;37895;53.240;6.572;2024-02-28T01:33:19;53.08;;;38.30;;
51854;SDS011;37895;53.240;6.572;2024-02-28T01:35:45;48.03;;;35.65;;
51854;SDS011;37895;53.240;6.572;2024-02-28T01:38:10;52.97;;;37.47;;
51854;SDS011;37895;53.240;6.572;2024-02-28T01:40:36;49.63;;;37.03;;
51854;SDS011;37895;53.240;6.572;2024-02-28T01:43:02;54.22;;;38.47;;
51854;SDS011;37895;53.240;6.572;2024-02-28T01:45:37;52.95;;;37.38;;
51854;SDS011;37895;53.240;6.572;2024-02-28T01:48:03;53.38;;;37.63;;
51854;SDS011;37895;53.240;6.572;2024-02-28T01:50:31;57.40;;;39.42;;
51854;SDS011;37895;53.240;6.572;2024-02-28T01:52:58;56.33;;;38.67;;
51854;SDS011;37895;53.240;6.572;2024-02-28T01:55:25;57.13;;;40.05;;
51854;SDS011;37895;53.240;6.572;2024-02-28T01:57:51;49.38;;;36.88;;
51854;SDS011;37895;53.240;6.572;2024-02-28T02:00:18;51.70;;;36.78;;
51854;SDS011;37895;53.240;6.572;2024-02-28T02:02:44;51.70;;;37.13;;
51854;SDS011;37895;53.240;6.572;2024-02-28T02:05:10;51.15;;;38.03;;
51854;SDS011;37895;53.240;6.572;2024-02-28T02:07:35;51.42;;;38.33;;
51854;SDS011;37895;53.240;6.572;2024-02-28T02:10:01;51.95;;;38.00;;
51854;SDS011;37895;53.240;6.572;2024-02-28T02:12:27;53.33;;;39.42;;
51854;SDS011;37895;53.240;6.572;2024-02-28T02:14:52;52.97;;;39.20;;
51854;SDS011;37895;53.240;6.572;2024-02-28T02:17:18;52.78;;;37.40;;
51854;SDS011;37895;53.240;6.572;2024-02-28T02:19:44;62.42;;;42.75;;
51854;SDS011;37895;53.240;6.572;2024-02-28T02:22:10;54.65;;;38.97;;
51854;SDS011;37895;53.240;6.572;2024-02-28T02:24:38;63.97;;;41.72;;
51854;SDS011;37895;53.240;6.572;2024-02-28T02:27:04;59.30;;;40.65;;
51854;SDS011;37895;53.240;6.572;2024-02-28T02:29:30;68.13;;;43.33;;
51854;SDS011;37895;53.240;6.572;2024-02-28T02:31:56;56.80;;;40.70;;
51854;SDS011;37895;53.240;6.572;2024-02-28T02:34:21;56.60;;;39.42;;
51854;SDS011;37895;53.240;6.572;2024-02-28T02:36:47;64.35;;;41.58;;
51854;SDS011;37895;53.240;6.572;2024-02-28T02:39:13;64.85;;;42.63;;
51854;SDS011;37895;53.240;6.572;2024-02-28T02:41:38;56.67;;;38.97;;
51854;SDS011;37895;53.240;6.572;2024-02-28T02:44:05;54.05;;;38.28;;
51854;SDS011;37895;53.240;6.572;2024-02-28T02:46:32;61.95;;;41.42;;
51854;SDS011;37895;53.240;6.572;2024-02-28T02:48:57;70.97;;;44.30;;
51854;SDS011;37895;53.240;6.572;2024-02-28T02:51:23;73.05;;;43.50;;
51854;SDS011;37895;53.240;6.572;2024-02-28T02:53:50;69.18;;;43.13;;
51854;SDS011;37895;53.240;6.572;2024-02-28T02:56:16;58.13;;;41.65;;
51854;SDS011;37895;53.240;6.572;2024-02-28T02:58:42;60.03;;;40.88;;
51854;SDS011;37895;53.240;6.572;2024-02-28T03:01:07;62.70;;;40.92;;
51854;SDS011;37895;53.240;6.572;2024-02-28T03:03:33;65.03;;;41.50;;
51854;SDS011;37895;53.240;6.572;2024-02-28T03:05:59;52.72;;;38.30;;
51854;SDS011;37895;53.240;6.572;2024-02-28T03:08:25;60.45;;;39.40;;
51854;SDS011;37895;53.240;6.572;2024-02-28T03:10:51;63.35;;;40.83;;
51854;SDS011;37895;53.240;6.572;2024-02-28T03:13:16;53.65;;;38.47;;
51854;SDS011;37895;53.240;6.572;2024-02-28T03:15:43;66.10;;;42.33;;
51854;SDS011;37895;53.240;6.572;2024-02-28T03:18:09;62.22;;;40.60;;
51854;SDS011;37895;53.240;6.572;2024-02-28T03:20:34;58.88;;;38.85;;
51854;SDS011;37895;53.240;6.572;2024-02-28T03:23:03;60.92;;;40.15;;
51854;SDS011;37895;53.240;6.572;2024-02-28T03:25:30;52.63;;;37.63;;
51854;SDS011;37895;53.240;6.572;2024-02-28T03:27:56;50.38;;;37.50;;
51854;SDS011;37895;53.240;6.572;2024-02-28T03:30:22;58.72;;;40.55;;
51854;SDS011;37895;53.240;6.572;2024-02-28T03:32:47;61.05;;;40.58;;
51854;SDS011;37895;53.240;6.572;2024-02-28T03:35:13;60.10;;;41.97;;
51854;SDS011;37895;53.240;6.572;2024-02-28T03:37:39;64.00;;;41.90;;
51854;SDS011;37895;53.240;6.572;2024-02-28T03:40:05;59.75;;;41.08;;
51854;SDS011;37895;53.240;6.572;2024-02-28T03:42:31;58.05;;;41.10;;
51854;SDS011;37895;53.240;6.572;2024-02-28T03:44:57;53.78;;;39.88;;
51854;SDS011;37895;53.240;6.572;2024-02-28T03:47:22;54.30;;;40.10;;
51854;SDS011;37895;53.240;6.572;2024-02-28T03:49:49;66.13;;;43.47;;
51854;SDS011;37895;53.240;6.572;2024-02-28T03:52:15;52.40;;;38.42;;
51854;SDS011;37895;53.240;6.572;2024-02-28T03:54:44;59.10;;;41.67;;
51854;SDS011;37895;53.240;6.572;2024-02-28T03:57:10;58.42;;;41.30;;
51854;SDS011;37895;53.240;6.572;2024-02-28T03:59:35;54.70;;;39.38;;
51854;SDS011;37895;53.240;6.572;2024-02-28T04:02:01;54.20;;;39.28;;
51854;SDS011;37895;53.240;6.572;2024-02-28T04:04:27;57.03;;;39.70;;
51854;SDS011;37895;53.240;6.572;2024-02-28T04:06:52;52.65;;;38.83;;
51854;SDS011;37895;53.240;6.572;2024-02-28T04:09:18;55.00;;;39.67;;
51854;SDS011;37895;53.240;6.572;2024-02-28T04:11:45;55.20;;;39.53;;
51854;SDS011;37895;53.240;6.572;2024-02-28T04:14:10;56.20;;;39.28;;
51854;SDS011;37895;53.240;6.572;2024-02-28T04:16:40;52.00;;;38.45;;
51854;SDS011;37895;53.240;6.572;2024-02-28T04:19:08;52.38;;;37.80;;
51854;SDS011;37895;53.240;6.572;2024-02-28T04:21:34;55.40;;;38.83;;
51854;SDS011;37895;53.240;6.572;2024-02-28T04:24:00;48.58;;;36.75;;
51854;SDS011;37895;53.240;6.572;2024-02-28T04:26:26;53.67;;;39.55;;
51854;SDS011;37895;53.240;6.572;2024-02-28T04:28:51;54.13;;;38.53;;
51854;SDS011;37895;53.240;6.572;2024-02-28T04:31:17;48.00;;;36.58;;
51854;SDS011;37895;53.240;6.572;2024-02-28T04:33:42;49.67;;;37.20;;
51854;SDS011;37895;53.240;6.572;2024-02-28T04:36:08;51.63;;;38.72;;
51854;SDS011;37895;53.240;6.572;2024-02-28T04:38:34;47.70;;;36.17;;
51854;SDS011;37895;53.240;6.572;2024-02-28T04:40:59;46.55;;;36.13;;
51854;SDS011;37895;53.240;6.572;2024-02-28T04:43:25;50.45;;;37.35;;
51854;SDS011;37895;53.240;6.572;2024-02-28T04:45:51;52.85;;;38.05;;
51854;SDS011;37895;53.240;6.572;2024-02-28T04:48:16;52.90;;;39.45;;
51854;SDS011;37895;53.240;6.572;2024-02-28T04:50:42;51.50;;;38.33;;
51854;SDS011;37895;53.240;6.572;2024-02-28T04:53:07;55.45;;;39.45;;
51854;SDS011;37895;53.240;6.572;2024-02-28T04:55:33;54.90;;;37.72;;
51854;SDS011;37895;53.240;6.572;2024-02-28T04:57:59;50.85;;;39.10;;
51854;SDS011;37895;53.240;6.572;2024-02-28T05:00:25;49.15;;;37.28;;
51854;SDS011;37895;53.240;6.572;2024-02-28T05:02:51;56.72;;;39.72;;
51854;SDS011;37895;53.240;6.572;2024-02-28T05:05:17;59.10;;;39.55;;
51854;SDS011;37895;53.240;6.572;2024-02-28T05:07:43;52.97;;;37.45;;
51854;SDS011;37895;53.240;6.572;2024-02-28T05:10:08;54.45;;;38.58;;
51854;SDS011;37895;53.240;6.572;2024-02-28T05:12:34;58.00;;;39.38;;
51854;SDS011;37895;53.240;6.572;2024-02-28T05:15:00;52.58;;;36.97;;
51854;SDS011;37895;53.240;6.572;2024-02-28T05:17:25;50.22;;;37.10;;
51854;SDS011;37895;53.240;6.572;2024-02-28T05:19:52;50.40;;;37.17;;
51854;SDS011;37895;53.240;6.572;2024-02-28T05:22:18;50.95;;;37.83;;
51854;SDS011;37895;53.240;6.572;2024-02-28T05:24:45;49.25;;;36.83;;
51854;SDS011;37895;53.240;6.572;2024-02-28T05:27:11;52.70;;;37.40;;
51854;SDS011;37895;53.240;6.572;2024-02-28T05:29:37;52.90;;;39.28;;
51854;SDS011;37895;53.240;6.572;2024-02-28T05:32:03;55.85;;;40.00;;
51854;SDS011;37895;53.240;6.572;2024-02-28T05:36:54;53.28;;;38.05;;
51854;SDS011;37895;53.240;6.572;2024-02-28T05:39:20;55.83;;;40.85;;
51854;SDS011;37895;53.240;6.572;2024-02-28T05:41:45;51.83;;;38.45;;
51854;SDS011;37895;53.240;6.572;2024-02-28T05:44:12;53.17;;;39.00;;
51854;SDS011;37895;53.240;6.572;2024-02-28T05:46:37;55.95;;;39.45;;
51854;SDS011;37895;53.240;6.572;2024-02-28T05:49:03;56.88;;;40.40;;
51854;SDS011;37895;53.240;6.572;2024-02-28T05:51:29;53.20;;;38.50;;
51854;SDS011;37895;53.240;6.572;2024-02-28T05:53:54;53.78;;;39.70;;
51854;SDS011;37895;53.240;6.572;2024-02-28T05:56:20;57.90;;;39.72;;
51854;SDS011;37895;53.240;6.572;2024-02-28T05:58:47;60.83;;;43.63;;
51854;SDS011;37895;53.240;6.572;2024-02-28T06:01:16;64.95;;;42.00;;
51854;SDS011;37895;53.240;6.572;2024-02-28T06:03:42;58.40;;;40.78;;
51854;SDS011;37895;53.240;6.572;2024-02-28T06:06:10;62.22;;;41.88;;
51854;SDS011;37895;53.240;6.572;2024-02-28T06:08:37;58.97;;;40.63;;
51854;SDS011;37895;53.240;6.572;2024-02-28T06:11:04;57.88;;;40.20;;
51854;SDS011;37895;53.240;6.572;2024-02-28T06:13:30;62.67;;;42.40;;
51854;SDS011;37895;53.240;6.572;2024-02-28T06:15:56;67.32;;;44.10;;
51854;SDS011;37895;53.240;6.572;2024-02-28T06:18:22;59.35;;;41.15;;
51854;SDS011;37895;53.240;6.572;2024-02-28T06:20:51;58.40;;;42.22;;
51854;SDS011;37895;53.240;6.572;2024-02-28T06:23:21;63.55;;;43.05;;
51854;SDS011;37895;53.240;6.572;2024-02-28T06:25:47;64.30;;;43.15;;
51854;SDS011;37895;53.240;6.572;2024-02-28T06:28:14;68.60;;;44.80;;
51854;SDS011;37895;53.240;6.572;2024-02-28T06:30:39;61.58;;;43.05;;
51854;SDS011;37895;53.240;6.572;2024-02-28T06:33:05;72.90;;;45.05;;
51854;SDS011;37895;53.240;6.572;2024-02-28T06:35:31;72.93;;;44.58;;
51854;SDS011;37895;53.240;6.572;2024-02-28T06:37:56;69.80;;;44.08;;
51854;SDS011;37895;53.240;6.572;2024-02-28T06:40:22;73.82;;;46.17;;
51854;SDS011;37895;53.240;6.572;2024-02-28T06:42:48;73.25;;;45.13;;
51854;SDS011;37895;53.240;6.572;2024-02-28T06:45:13;67.63;;;43.50;;
51854;SDS011;37895;53.240;6.572;2024-02-28T06:47:39;70.47;;;44.17;;
51854;SDS011;37895;53.240;6.572;2024-02-28T06:50:05;66.40;;;42.67;;
51854;SDS011;37895;53.240;6.572;2024-02-28T06:52:31;71.80;;;43.63;;
51854;SDS011;37895;53.240;6.572;2024-02-28T06:54:58;77.22;;;44.58;;
51854;SDS011;37895;53.240;6.572;2024-02-28T06:57:25;67.85;;;42.78;;
51854;SDS011;37895;53.240;6.572;2024-02-28T06:59:50;77.45;;;45.35;;
51854;SDS011;37895;53.240;6.572;2024-02-28T07:02:16;84.10;;;46.95;;
51854;SDS011;37895;53.240;6.572;2024-02-28T07:04:41;75.93;;;45.95;;
51854;SDS011;37895;53.240;6.572;2024-02-28T07:07:07;77.55;;;46.80;;
51854;SDS011;37895;53.240;6.572;2024-02-28T07:09:33;90.50;;;48.15;;
51854;SDS011;37895;53.240;6.572;2024-02-28T07:11:59;86.70;;;48.85;;
51854;SDS011;37895;53.240;6.572;2024-02-28T07:14:26;98.70;;;50.50;;
51854;SDS011;37895;53.240;6.572;2024-02-28T07:16:51;98.20;;;49.53;;
51854;SDS011;37895;53.240;6.572;2024-02-28T07:19:17;99.15;;;49.80;;
51854;SDS011;37895;53.240;6.572;2024-02-28T07:21:43;97.05;;;49.45;;
51854;SDS011;37895;53.240;6.572;2024-02-28T07:26:35;98.10;;;51.20;;
51854;SDS011;37895;53.240;6.572;2024-02-28T07:29:01;101.75;;;51.40;;
51854;SDS011;37895;53.240;6.572;2024-02-28T07:31:26;98.00;;;51.63;;
51854;SDS011;37895;53.240;6.572;2024-02-28T07:33:52;105.03;;;51.58;;
51854;SDS011;37895;53.240;6.572;2024-02-28T07:36:19;97.25;;;51.08;;
51854;SDS011;37895;53.240;6.572;2024-02-28T07:38:44;88.07;;;49.83;;
51854;SDS011;37895;53.240;6.572;2024-02-28T07:41:10;88.75;;;49.72;;
51854;SDS011;37895;53.240;6.572;2024-02-28T07:43:35;95.93;;;50.80;;
51854;SDS011;37895;53.240;6.572;2024-02-28T07:46:07;106.50;;;51.22;;
51854;SDS011;37895;53.240;6.572;2024-02-28T07:48:34;91.97;;;50.88;;
51854;SDS011;37895;53.240;6.572;2024-02-28T07:51:00;75.88;;;47.13;;
51854;SDS011;37895;53.240;6.572;2024-02-28T07:53:28;84.85;;;48.00;;
51854;SDS011;37895;53.240;6.572;2024-02-28T07:55:54;73.57;;;45.67;;
51854;SDS011;37895;53.240;6.572;2024-02-28T07:58:19;71.45;;;45.20;;
51854;SDS011;37895;53.240;6.572;2024-02-28T08:00:45;65.35;;;43.83;;
51854;SDS011;37895;53.240;6.572;2024-02-28T08:03:10;65.10;;;43.92;;
51854;SDS011;37895;53.240;6.572;2024-02-28T08:05:36;66.38;;;44.78;;
51854;SDS011;37895;53.240;6.572;2024-02-28T08:08:06;64.60;;;42.45;;
51854;SDS011;37895;53.240;6.572;2024-02-28T08:10:32;66.97;;;44.78;;
51854;SDS011;37895;53.240;6.572;2024-02-28T08:12:58;59.72;;;43.13;;
51854;SDS011;37895;53.240;6.572;2024-02-28T08:15:24;64.93;;;42.75;;
51854;SDS011;37895;53.240;6.572;2024-02-28T08:17:49;61.75;;;41.85;;
51854;SDS011;37895;53.240;6.572;2024-02-28T08:20:15;58.33;;;41.80;;
51854;SDS011;37895;53.240;6.572;2024-02-28T08:22:40;60.03;;;41.00;;
51854;SDS011;37895;53.240;6.572;2024-02-28T08:25:06;61.03;;;40.90;;
51854;SDS011;37895;53.240;6.572;2024-02-28T08:27:33;56.10;;;40.55;;
51854;SDS011;37895;53.240;6.572;2024-02-28T08:29:59;56.95;;;39.80;;
51854;SDS011;37895;53.240;6.572;2024-02-28T08:32:25;54.65;;;39.20;;
51854;SDS011;37895;53.240;6.572;2024-02-28T08:34:51;57.08;;;42.40;;
51854;SDS011;37895;53.240;6.572;2024-02-28T08:37:19;57.50;;;39.10;;
51854;SDS011;37895;53.240;6.572;2024-02-28T08:39:44;52.08;;;40.22;;
51854;SDS011;37895;53.240;6.572;2024-02-28T08:42:10;55.85;;;40.47;;
51854;SDS011;37895;53.240;6.572;2024-02-28T08:44:37;54.60;;;41.22;;
51854;SDS011;37895;53.240;6.572;2024-02-28T08:47:03;52.33;;;38.40;;
51854;SDS011;37895;53.240;6.572;2024-02-28T08:49:29;49.63;;;37.63;;
51854;SDS011;37895;53.240;6.572;2024-02-28T08:51:55;52.92;;;38.80;;
51854;SDS011;37895;53.240;6.572;2024-02-28T08:56:47;51.78;;;39.13;;
51854;SDS011;37895;53.240;6.572;2024-02-28T08:59:13;53.22;;;38.00;;
51854;SDS011;37895;53.240;6.572;2024-02-28T09:01:39;50.05;;;37.08;;
51854;SDS011;37895;53.240;6.572;2024-02-28T09:04:06;46.15;;;37.00;;
51854;SDS011;37895;53.240;6.572;2024-02-28T09:06:32;51.92;;;36.78;;
51854;SDS011;37895;53.240;6.572;2024-02-28T09:08:57;45.42;;;35.13;;
51854;SDS011;37895;53.240;6.572;2024-02-28T09:11:23;49.08;;;37.90;;
51854;SDS011;37895;53.240;6.572;2024-02-28T09:13:50;54.03;;;37.25;;
51854;SDS011;37895;53.240;6.572;2024-02-28T09:16:16;49.90;;;38.10;;
51854;SDS011;37895;53.240;6.572;2024-02-28T09:18:41;44.65;;;34.95;;
51854;SDS011;37895;53.240;6.572;2024-02-28T09:21:10;45.92;;;36.97;;
51854;SDS011;37895;53.240;6.572;2024-02-28T09:23:35;49.20;;;37.92;;
51854;SDS011;37895;53.240;6.572;2024-02-28T09:26:04;52.63;;;37.47;;
51854;SDS011;37895;53.240;6.572;2024-02-28T09:28:30;48.10;;;37.25;;
51854;SDS011;37895;53.240;6.572;2024-02-28T09:30:56;50.20;;;36.95;;
51854;SDS011;37895;53.240;6.572;2024-02-28T09:33:22;48.28;;;36.05;;
51854;SDS011;37895;53.240;6.572;2024-02-28T09:35:48;46.08;;;36.60;;
51854;SDS011;37895;53.240;6.572;2024-02-28T09:38:14;52.00;;;37.88;;
51854;SDS011;37895;53.240;6.572;2024-02-28T09:40:40;47.88;;;36.90;;
51854;SDS011;37895;53.240;6.572;2024-02-28T09:43:07;52.47;;;37.55;;
51854;SDS011;37895;53.240;6.572;2024-02-28T09:45:40;52.80;;;39.10;;
51854;SDS011;37895;53.240;6.572;2024-02-28T09:48:06;51.22;;;39.10;;
51854;SDS011;37895;53.240;6.572;2024-02-28T09:50:33;50.00;;;38.88;;
51854;SDS011;37895;53.240;6.572;2024-02-28T09:52:58;50.25;;;38.20;;
51854;SDS011;37895;53.240;6.572;2024-02-28T09:55:24;49.55;;;37.95;;
51854;SDS011;37895;53.240;6.572;2024-02-28T09:57:50;48.25;;;36.47;;
51854;SDS011;37895;53.240;6.572;2024-02-28T10:00:18;49.45;;;37.65;;
51854;SDS011;37895;53.240;6.572;2024-02-28T10:02:45;52.08;;;40.53;;
51854;SDS011;37895;53.240;6.572;2024-02-28T10:05:13;45.92;;;35.97;;
51854;SDS011;37895;53.240;6.572;2024-02-28T10:07:40;45.75;;;37.25;;
51854;SDS011;37895;53.240;6.572;2024-02-28T10:10:06;47.42;;;36.38;;
51854;SDS011;37895;53.240;6.572;2024-02-28T10:12:33;48.85;;;35.78;;
51854;SDS011;37895;53.240;6.572;2024-02-28T10:15:02;45.88;;;36.75;;
51854;SDS011;37895;53.240;6.572;2024-02-28T10:17:28;47.35;;;36.65;;
51854;SDS011;37895;53.240;6.572;2024-02-28T10:19:53;43.67;;;36.30;;
51854;SDS011;37895;53.240;6.572;2024-02-28T10:22:20;47.95;;;37.30;;
51854;SDS011;37895;53.240;6.572;2024-02-28T10:24:46;42.55;;;35.90;;
51854;SDS011;37895;53.240;6.572;2024-02-28T10:27:15;48.65;;;37.50;;
51854;SDS011;37895;53.240;6.572;2024-02-28T10:29:41;44.58;;;35.80;;
51854;SDS011;37895;53.240;6.572;2024-02-28T10:32:09;46.95;;;37.35;;
51854;SDS011;37895;53.240;6.572;2024-02-28T10:34:35;44.50;;;37.17;;
51854;SDS011;37895;53.240;6.572;2024-02-28T10:37:03;45.92;;;36.38;;
51854;SDS011;37895;53.240;6.572;2024-02-28T10:39:30;46.67;;;37.25;;
51854;SDS011;37895;53.240;6.572;2024-02-28T10:41:56;46.17;;;37.35;;
51854;SDS011;37895;53.240;6.572;2024-02-28T10:44:25;43.13;;;36.60;;
51854;SDS011;37895;53.240;6.572;2024-02-28T10:46:52;43.72;;;37.25;;
51854;SDS011;37895;53.240;6.572;2024-02-28T10:49:18;44.70;;;36.20;;
51854;SDS011;37895;53.240;6.572;2024-02-28T10:51:45;48.10;;;37.70;;
51854;SDS011;37895;53.240;6.572;2024-02-28T10:54:13;45.65;;;36.95;;
51854;SDS011;37895;53.240;6.572;2024-02-28T10:56:40;44.40;;;36.50;;
51854;SDS011;37895;53.240;6.572;2024-02-28T10:59:08;48.45;;;37.38;;
51854;SDS011;37895;53.240;6.572;2024-02-28T11:01:44;45.40;;;36.35;;
51854;SDS011;37895;53.240;6.572;2024-02-28T11:04:10;44.90;;;36.70;;
51854;SDS011;37895;53.240;6.572;2024-02-28T11:06:56;43.25;;;35.50;;
51854;SDS011;37895;53.240;6.572;2024-02-28T11:09:25;43.35;;;35.58;;
51854;SDS011;37895;53.240;6.572;2024-02-28T11:11:55;44.47;;;36.97;;
51854;SDS011;37895;53.240;6.572;2024-02-28T11:14:21;45.95;;;36.25;;
51854;SDS011;37895;53.240;6.572;2024-02-28T11:19:31;44.97;;;34.25;;
51854;SDS011;37895;53.240;6.572;2024-02-28T11:21:58;46.05;;;36.33;;
51854;SDS011;37895;53.240;6.572;2024-02-28T11:24:28;41.58;;;33.90;;
51854;SDS011;37895;53.240;6.572;2024-02-28T11:26:55;45.70;;;35.92;;
51854;SDS011;37895;53.240;6.572;2024-02-28T11:29:22;42.85;;;35.10;;
51854;SDS011;37895;53.240;6.572;2024-02-28T11:31:52;42.65;;;33.60;;
51854;SDS011;37895;53.240;6.572;2024-02-28T11:34:18;40.58;;;33.88;;
51854;SDS011;37895;53.240;6.572;2024-02-28T11:36:48;39.78;;;33.45;;
51854;SDS011;37895;53.240;6.572;2024-02-28T11:39:14;38.33;;;31.80;;
51854;SDS011;37895;53.240;6.572;2024-02-28T11:41:41;38.70;;;31.17;;
51854;SDS011;37895;53.240;6.572;2024-02-28T11:44:07;39.65;;;30.77;;
51854;SDS011;37895;53.240;6.572;2024-02-28T11:46:33;35.78;;;31.00;;
51854;SDS011;37895;53.240;6.572;2024-02-28T11:49:00;35.58;;;30.58;;
51854;SDS011;37895;53.240;6.572;2024-02-28T11:51:26;35.75;;;30.50;;
51854;SDS011;37895;53.240;6.572;2024-02-28T11:53:52;36.50;;;31.85;;
51854;SDS011;37895;53.240;6.572;2024-02-28T11:56:17;32.97;;;29.40;;
51854;SDS011;37895;53.240;6.572;2024-02-28T11:58:52;35.35;;;29.88;;
51854;SDS011;37895;53.240;6.572;2024-02-28T12:01:19;38.05;;;31.48;;
51854;SDS011;37895;53.240;6.572;2024-02-28T12:03:56;34.28;;;29.38;;
51854;SDS011;37895;53.240;6.572;2024-02-28T12:06:23;35.40;;;29.45;;
51854;SDS011;37895;53.240;6.572;2024-02-28T12:11:15;36.83;;;30.45;;
51854;SDS011;37895;53.240;6.572;2024-02-28T12:13:40;37.58;;;32.22;;
51854;SDS011;37895;53.240;6.572;2024-02-28T12:16:07;43.03;;;33.95;;
51854;SDS011;37895;53.240;6.572;2024-02-28T12:18:34;40.83;;;32.78;;
51854;SDS011;37895;53.240;6.572;2024-02-28T12:21:00;39.15;;;31.98;;
51854;SDS011;37895;53.240;6.572;2024-02-28T12:23:25;38.42;;;34.00;;
51854;SDS011;37895;53.240;6.572;2024-02-28T12:25:51;42.33;;;34.22;;
51854;SDS011;37895;53.240;6.572;2024-02-28T12:28:16;45.33;;;35.25;;
51854;SDS011;37895;53.240;6.572;2024-02-28T12:30:42;42.58;;;34.58;;
51854;SDS011;37895;53.240;6.572;2024-02-28T12:33:12;41.10;;;35.00;;
51854;SDS011;37895;53.240;6.572;2024-02-28T12:35:37;44.38;;;35.05;;
51854;SDS011;37895;53.240;6.572;2024-02-28T12:38:03;40.67;;;34.28;;
51854;SDS011;37895;53.240;6.572;2024-02-28T12:40:29;41.35;;;35.78;;
51854;SDS011;37895;53.240;6.572;2024-02-28T12:42:54;42.75;;;36.47;;
51854;SDS011;37895;53.240;6.572;2024-02-28T12:45:20;41.83;;;36.20;;
51854;SDS011;37895;53.240;6.572;2024-02-28T12:47:46;46.20;;;35.25;;
51854;SDS011;37895;53.240;6.572;2024-02-28T12:50:11;39.38;;;35.03;;
51854;SDS011;37895;53.240;6.572;2024-02-28T12:52:37;42.92;;;36.78;;
51854;SDS011;37895;53.240;6.572;2024-02-28T12:55:02;38.40;;;34.22;;
51854;SDS011;37895;53.240;6.572;2024-02-28T12:57:28;45.85;;;35.67;;
51854;SDS011;37895;53.240;6.572;2024-02-28T12:59:54;43.33;;;36.10;;
51854;SDS011;37895;53.240;6.572;2024-02-28T13:02:21;44.90;;;35.30;;
51854;SDS011;37895;53.240;6.572;2024-02-28T13:04:47;41.67;;;36.67;;
51854;SDS011;37895;53.240;6.572;2024-02-28T13:07:14;40.60;;;34.63;;
51854;SDS011;37895;53.240;6.572;2024-02-28T13:09:40;38.83;;;34.67;;
51854;SDS011;37895;53.240;6.572;2024-02-28T13:12:06;40.78;;;34.38;;
51854;SDS011;37895;53.240;6.572;2024-02-28T13:14:33;38.50;;;34.42;;
51854;SDS011;37895;53.240;6.572;2024-02-28T13:16:59;39.78;;;34.00;;
51854;SDS011;37895;53.240;6.572;2024-02-28T13:19:25;40.78;;;34.60;;
51854;SDS011;37895;53.240;6.572;2024-02-28T13:21:50;41.20;;;34.85;;
51854;SDS011;37895;53.240;6.572;2024-02-28T13:24:16;40.28;;;33.70;;
51854;SDS011;37895;53.240;6.572;2024-02-28T13:26:42;37.90;;;33.30;;
51854;SDS011;37895;53.240;6.572;2024-02-28T13:29:07;36.42;;;32.42;;
51854;SDS011;37895;53.240;6.572;2024-02-28T13:34:00;37.10;;;33.05;;
51854;SDS011;37895;53.240;6.572;2024-02-28T13:36:25;37.60;;;33.38;;
51854;SDS011;37895;53.240;6.572;2024-02-28T13:38:51;36.90;;;33.10;;
51854;SDS011;37895;53.240;6.572;2024-02-28T13:41:17;38.42;;;33.58;;
51854;SDS011;37895;53.240;6.572;2024-02-28T13:43:42;36.97;;;33.05;;
51854;SDS011;37895;53.240;6.572;2024-02-28T13:46:08;35.55;;;31.65;;
51854;SDS011;37895;53.240;6.572;2024-02-28T13:48:35;36.72;;;32.83;;
51854;SDS011;37895;53.240;6.572;2024-02-28T13:51:00;35.35;;;30.52;;
51854;SDS011;37895;53.240;6.572;2024-02-28T13:53:29;35.75;;;31.90;;
51854;SDS011;37895;53.240;6.572;2024-02-28T13:55:54;37.10;;;32.13;;
51854;SDS011;37895;53.240;6.572;2024-02-28T13:58:20;33.33;;;29.98;;
51854;SDS011;37895;53.240;6.572;2024-02-28T14:00:45;32.70;;;29.15;;
51854;SDS011;37895;53.240;6.572;2024-02-28T14:03:14;34.17;;;30.52;;
51854;SDS011;37895;53.240;6.572;2024-02-28T14:05:40;34.83;;;30.52;;
51854;SDS011;37895;53.240;6.572;2024-02-28T14:08:06;34.13;;;30.38;;
51854;SDS011;37895;53.240;6.572;2024-02-28T14:10:37;33.33;;;29.67;;
51854;SDS011;37895;53.240;6.572;2024-02-28T14:13:02;35.10;;;30.55;;
51854;SDS011;37895;53.240;6.572;2024-02-28T14:15:28;34.42;;;30.00;;
51854;SDS011;37895;53.240;6.572;2024-02-28T14:17:54;32.38;;;29.08;;
51854;SDS011;37895;53.240;6.572;2024-02-28T14:20:19;33.00;;;29.55;;
51854;SDS011;37895;53.240;6.572;2024-02-28T14:22:45;32.75;;;29.30;;
51854;SDS011;37895;53.240;6.572;2024-02-28T14:25:11;31.52;;;28.23;;
51854;SDS011;37895;53.240;6.572;2024-02-28T14:27:38;32.63;;;29.15;;
51854;SDS011;37895;53.240;6.572;2024-02-28T14:30:08;32.22;;;28.70;;